createdAt,value
2022-11-20T00:03:24.074Z,-6.66
2022-11-20T00:08:25.128Z,-6.78
2022-11-20T00:13:33.055Z,-6.91
2022-11-20T00:18:34.931Z,-7.01
2022-11-20T00:23:36.470Z,-7.08
2022-11-20T00:28:37.789Z,-7.02
2022-11-20T00:33:39.740Z,-6.83
2022-11-20T00:38:41.828Z,-6.81
2022-11-20T00:43:43.599Z,-6.94
2022-11-20T00:48:45.709Z,-6.85
2022-11-20T00:53:47.358Z,-6.74
2022-11-20T00:58:49.484Z,-6.68
2022-11-20T01:03:52.439Z,-6.76
2022-11-20T01:08:55.867Z,-6.70
2022-11-20T01:13:58.709Z,-6.67
2022-11-20T01:19:02.066Z,-6.73
2022-11-20T01:24:05.241Z,-6.93
2022-11-20T01:29:07.874Z,-6.99
2022-11-20T01:34:16.401Z,-7.07
2022-11-20T01:39:20.744Z,-7.06
2022-11-20T01:44:43.273Z,-7.06
2022-11-20T01:49:52.988Z,-7.01
2022-11-20T01:55:15.118Z,-6.92
2022-11-20T02:00:18.943Z,-6.85
2022-11-20T02:05:24.421Z,-6.80
2022-11-20T02:10:27.469Z,-6.79
2022-11-20T02:15:30.486Z,-6.83
2022-11-20T02:20:32.417Z,-7.03
2022-11-20T02:25:35.938Z,-7.18
2022-11-20T02:30:37.060Z,-7.31
2022-11-20T02:35:43.954Z,-7.39
2022-11-20T02:40:45.122Z,-7.47
2022-11-20T02:45:46.278Z,-7.52
2022-11-20T02:50:47.354Z,-7.56
2022-11-20T02:55:49.171Z,-7.55
2022-11-20T03:00:50.205Z,-7.52
2022-11-20T03:05:51.426Z,-7.42
2022-11-20T03:10:52.778Z,-7.15
2022-11-20T03:15:53.819Z,-6.95
2022-11-20T03:20:59.107Z,-6.95
2022-11-20T03:26:21.159Z,-7.05
2022-11-20T03:31:28.378Z,-7.12
2022-11-20T03:36:30.471Z,-7.18
2022-11-20T03:41:32.239Z,-7.42
2022-11-20T03:46:33.581Z,-7.59
2022-11-20T03:51:36.215Z,-7.74
2022-11-20T03:56:38.673Z,-7.76
2022-11-20T04:01:42.122Z,-7.70
2022-11-20T04:06:46.177Z,-7.75
2022-11-20T04:11:47.373Z,-7.73
2022-11-20T04:16:48.466Z,-7.53
2022-11-20T04:21:49.587Z,-7.31
2022-11-20T04:26:50.751Z,-7.11
2022-11-20T04:31:51.785Z,-6.99
2022-11-20T04:36:52.867Z,-6.98
2022-11-20T04:42:13.891Z,-6.96
2022-11-20T04:47:14.965Z,-7.09
2022-11-20T04:52:16.108Z,-7.34
2022-11-20T04:57:17.146Z,-7.24
2022-11-20T05:02:18.433Z,-7.20
2022-11-20T05:07:19.587Z,-7.43
2022-11-20T05:12:20.723Z,-7.60
2022-11-20T05:17:21.812Z,-7.78
2022-11-20T05:22:22.973Z,-7.85
2022-11-20T05:27:24.233Z,-7.85
2022-11-20T05:32:27.888Z,-7.85
2022-11-20T05:37:28.975Z,-7.97
2022-11-20T05:42:33.333Z,-8.03
2022-11-20T05:47:35.532Z,-8.08
2022-11-20T05:52:36.690Z,-8.18
2022-11-20T05:57:37.854Z,-7.98
2022-11-20T06:02:38.982Z,-7.74
2022-11-20T06:07:40.156Z,-7.51
2022-11-20T06:12:41.253Z,-7.49
2022-11-20T06:17:42.394Z,-7.33
2022-11-20T06:22:43.422Z,-7.47
2022-11-20T06:27:44.510Z,-7.63
2022-11-20T06:32:45.630Z,-7.53
2022-11-20T06:37:46.836Z,-7.28
2022-11-20T06:42:47.952Z,-7.14
2022-11-20T06:47:49.045Z,-7.27
2022-11-20T06:52:50.227Z,-7.30
2022-11-20T06:57:55.762Z,-7.20
2022-11-20T07:02:57.062Z,-6.96
2022-11-20T07:07:58.604Z,-6.49
2022-11-20T07:13:00.179Z,-6.06
2022-11-20T07:18:02.154Z,-5.68
2022-11-20T07:23:03.330Z,-5.38
2022-11-20T07:28:04.886Z,-5.06
2022-11-20T07:33:06.003Z,-4.80
2022-11-20T07:38:07.101Z,-4.60
2022-11-20T07:43:08.473Z,-4.30
2022-11-20T07:48:09.630Z,-4.01
2022-11-20T07:53:10.790Z,-3.75
2022-11-20T07:58:11.835Z,-3.49
2022-11-20T08:03:13.371Z,-3.31
2022-11-20T08:08:14.579Z,-3.05
2022-11-20T08:13:44.719Z,-2.79
2022-11-20T08:18:45.760Z,-2.47
2022-11-20T08:23:46.799Z,-2.21
2022-11-20T08:28:47.863Z,-1.96
2022-11-20T08:33:49.877Z,-1.75
2022-11-20T08:38:55.871Z,-1.47
2022-11-20T08:44:00.180Z,-1.19
2022-11-20T08:49:01.338Z,-0.98
2022-11-20T08:54:03.627Z,-0.68
2022-11-20T09:04:26.018Z,-0.32
2022-11-20T09:09:27.038Z,0.05
2022-11-20T09:14:30.435Z,0.40
2022-11-20T09:19:35.749Z,0.55
2022-11-20T09:24:37.875Z,0.58
2022-11-20T09:29:38.993Z,0.67
2022-11-20T09:34:40.149Z,0.64
2022-11-20T09:39:41.394Z,0.66
2022-11-20T09:45:16.671Z,0.81
2022-11-20T09:50:37.084Z,1.01
2022-11-20T09:55:40.082Z,1.22
2022-11-20T10:00:41.916Z,1.31
2022-11-20T10:05:47.750Z,1.43
2022-11-20T10:11:06.126Z,1.56
2022-11-20T10:16:26.961Z,1.91
2022-11-20T10:21:46.515Z,2.11
2022-11-20T10:27:05.926Z,2.36
2022-11-20T10:32:20.782Z,2.59
2022-11-20T10:37:25.828Z,2.88
2022-11-20T10:42:35.082Z,3.16
2022-11-20T10:47:36.482Z,3.32
2022-11-20T10:53:01.167Z,3.56
2022-11-20T10:58:14.820Z,3.70
2022-11-20T11:03:25.886Z,3.67
2022-11-20T11:08:33.118Z,3.79
2022-11-20T11:13:34.271Z,3.80
2022-11-20T11:18:35.704Z,3.81
2022-11-20T11:23:40.076Z,3.90
2022-11-20T11:28:41.232Z,3.70
2022-11-20T11:33:42.397Z,3.67
2022-11-20T11:38:44.580Z,3.71
2022-11-20T11:44:14.517Z,3.93
2022-11-20T11:49:18.131Z,4.22
2022-11-20T11:54:46.146Z,4.20
2022-11-20T12:00:12.475Z,4.10
2022-11-20T12:05:27.765Z,3.75
2022-11-20T12:10:44.909Z,3.79
2022-11-20T12:15:47.900Z,3.88
2022-11-20T12:21:10.874Z,4.13
2022-11-20T12:26:25.899Z,4.41
2022-11-20T12:31:53.444Z,4.68
2022-11-20T12:37:29.522Z,4.84
2022-11-20T12:43:01.705Z,5.00
2022-11-20T12:48:43.666Z,4.99
2022-11-20T12:54:21.319Z,4.63
2022-11-20T12:59:25.714Z,4.72
2022-11-20T13:04:36.040Z,4.82
2022-11-20T13:09:45.545Z,4.94
2022-11-20T13:14:52.397Z,4.88
2022-11-20T13:19:57.593Z,4.51
2022-11-20T13:24:58.817Z,4.18
2022-11-20T13:30:13.393Z,4.02
2022-11-20T13:35:35.192Z,3.95
2022-11-20T13:40:39.475Z,3.99
2022-11-20T13:45:40.630Z,3.89
2022-11-20T13:51:03.203Z,3.75
2022-11-20T13:56:26.167Z,3.60
2022-11-20T14:01:34.971Z,3.43
2022-11-20T14:06:43.650Z,3.37
2022-11-20T14:11:48.329Z,3.26
2022-11-20T14:16:52.493Z,3.16
2022-11-20T14:22:08.932Z,3.10
2022-11-20T14:27:21.666Z,2.93
2022-11-20T14:32:28.629Z,2.84
2022-11-20T14:37:36.500Z,2.80
2022-11-20T14:42:37.785Z,2.75
2022-11-20T14:47:39.523Z,2.71
2022-11-20T14:52:51.277Z,2.68
2022-11-20T14:57:57.642Z,2.68
2022-11-20T15:02:59.282Z,2.67
2022-11-20T15:08:09.183Z,2.63
2022-11-20T15:13:16.510Z,2.55
2022-11-20T15:18:30.296Z,2.49
2022-11-20T15:23:31.406Z,2.47
2022-11-20T15:28:44.471Z,2.46
2022-11-20T15:33:45.770Z,2.39
2022-11-20T15:38:47.056Z,2.35
2022-11-20T15:43:48.704Z,2.23
2022-11-20T15:48:54.781Z,2.15
2022-11-20T15:53:56.645Z,2.06
2022-11-20T15:58:57.816Z,1.97
2022-11-20T16:04:00.118Z,1.91
2022-11-20T16:09:01.178Z,1.87
2022-11-20T16:14:22.184Z,1.76
2022-11-20T16:19:23.534Z,1.54
2022-11-20T16:24:25.077Z,1.27
2022-11-20T16:29:26.751Z,1.02
2022-11-20T16:34:28.156Z,0.80
2022-11-20T16:39:29.834Z,0.54
2022-11-20T16:44:31.003Z,0.30
2022-11-20T16:49:32.774Z,0.10
2022-11-20T16:54:33.881Z,-0.06
2022-11-20T16:59:34.992Z,-0.21
2022-11-20T17:04:36.560Z,-0.33
2022-11-20T17:09:38.542Z,-0.41
2022-11-20T17:14:39.643Z,-0.46
2022-11-20T17:19:40.718Z,-0.52
2022-11-20T17:24:41.917Z,-0.55
2022-11-20T17:29:43.084Z,-0.58
2022-11-20T17:34:44.197Z,-0.62
2022-11-20T17:39:45.397Z,-0.70
2022-11-20T17:44:46.874Z,-0.77
2022-11-20T17:49:48.337Z,-0.80
2022-11-20T17:54:49.599Z,-0.82
2022-11-20T17:59:50.761Z,-0.82
2022-11-20T18:04:51.920Z,-0.82
2022-11-20T18:09:53.134Z,-0.82
2022-11-20T18:14:54.428Z,-0.84
2022-11-20T18:20:21.840Z,-0.86
2022-11-20T18:25:16.750Z,-0.88
2022-11-20T18:30:17.952Z,-0.90
2022-11-20T18:35:19.132Z,-0.90
2022-11-20T18:40:20.239Z,-0.88
2022-11-20T18:45:21.349Z,-0.82
2022-11-20T18:50:22.551Z,-0.80
2022-11-20T18:55:25.430Z,-0.76
2022-11-20T19:00:26.728Z,-0.70
2022-11-20T19:05:27.859Z,-0.71
2022-11-20T19:10:29.027Z,-0.73
2022-11-20T19:15:32.537Z,-0.79
2022-11-20T19:20:33.908Z,-0.77
2022-11-20T19:25:38.170Z,-0.80
2022-11-20T19:30:41.242Z,-0.81
2022-11-20T19:35:42.508Z,-0.81
2022-11-20T19:40:43.559Z,-0.77
2022-11-20T19:45:44.672Z,-0.70
2022-11-20T19:50:45.886Z,-0.63
2022-11-20T19:55:58.004Z,-0.62
2022-11-20T20:01:12.882Z,-0.60
2022-11-20T20:06:17.264Z,-0.54
2022-11-20T20:11:21.049Z,-0.51
2022-11-20T20:16:24.561Z,-0.40
2022-11-20T20:21:25.823Z,-0.27
2022-11-20T20:26:29.541Z,-0.12
2022-11-20T20:31:32.914Z,0.06
2022-11-20T20:36:34.055Z,0.21
2022-11-20T20:41:35.161Z,0.34
2022-11-20T20:46:36.367Z,0.45
2022-11-20T20:51:38.007Z,0.56
2022-11-20T20:56:39.663Z,0.68
2022-11-20T21:01:40.923Z,0.79
2022-11-20T21:06:42.103Z,0.91
2022-11-20T21:11:43.265Z,1.00
2022-11-20T21:16:44.419Z,1.10
2022-11-20T21:22:02.428Z,1.16
2022-11-20T21:27:04.939Z,1.15
2022-11-20T21:32:06.136Z,1.20
2022-11-20T21:37:07.174Z,1.29
2022-11-20T21:42:08.263Z,1.38
2022-11-20T21:47:09.348Z,1.46
2022-11-20T21:52:10.464Z,1.50
2022-11-20T21:57:11.625Z,1.53
2022-11-20T22:02:12.784Z,1.52
2022-11-20T22:07:13.930Z,1.40
2022-11-20T22:12:22.019Z,1.23
2022-11-20T22:17:43.095Z,1.03
2022-11-20T22:22:44.236Z,0.84
2022-11-20T22:27:45.990Z,0.68
2022-11-20T22:32:47.131Z,0.60
2022-11-20T22:37:48.533Z,0.64
2022-11-20T22:42:49.670Z,0.68
2022-11-20T22:47:57.270Z,0.63
2022-11-20T22:52:58.327Z,0.47
2022-11-20T22:57:59.422Z,0.31
2022-11-20T23:03:00.667Z,0.12
2022-11-20T23:08:01.866Z,-0.11
2022-11-20T23:13:03.111Z,-0.42
2022-11-20T23:18:04.373Z,-0.60
2022-11-20T23:23:05.497Z,-0.60
2022-11-20T23:28:06.758Z,-0.69
2022-11-20T23:33:07.983Z,-0.95
2022-11-20T23:38:10.372Z,-0.79
2022-11-20T23:43:14.415Z,-0.50
2022-11-20T23:48:15.573Z,-0.23
2022-11-20T23:53:18.084Z,-0.10
2022-11-20T23:58:20.668Z,-0.12
